createdAt,value
2018-06-03T00:01:54.294Z,32.80
2018-06-03T00:04:24.496Z,32.90
2018-06-03T00:06:53.974Z,32.90
2018-06-03T00:09:24.294Z,33.00
2018-06-03T00:11:55.068Z,33.10
2018-06-03T00:14:24.751Z,33.10
2018-06-03T00:16:54.496Z,33.20
2018-06-03T00:19:24.288Z,33.20
2018-06-03T00:21:54.554Z,33.40
2018-06-03T00:24:25.186Z,33.40
2018-06-03T00:26:55.176Z,33.50
2018-06-03T00:29:24.792Z,33.60
2018-06-03T00:31:54.330Z,33.70
2018-06-03T00:34:24.278Z,33.80
2018-06-03T00:36:53.812Z,33.80
2018-06-03T00:39:23.444Z,33.80
2018-06-03T00:41:54.290Z,33.70
2018-06-03T00:44:23.755Z,33.80
2018-06-03T00:46:53.706Z,33.80
2018-06-03T00:49:25.485Z,33.70
2018-06-03T00:51:55.086Z,33.70
2018-06-03T00:54:25.513Z,33.60
2018-06-03T00:56:55.407Z,33.60
2018-06-03T00:59:24.829Z,33.70
2018-06-03T01:01:55.163Z,33.60
2018-06-03T01:04:25.390Z,33.60
2018-06-03T01:06:55.058Z,33.60
2018-06-03T01:09:24.595Z,33.70
2018-06-03T01:11:55.344Z,33.70
2018-06-03T01:14:25.167Z,33.70
2018-06-03T01:16:55.594Z,33.80
2018-06-03T01:19:25.337Z,33.80
2018-06-03T01:21:54.711Z,33.80
2018-06-03T01:24:24.195Z,33.90
2018-06-03T01:26:54.212Z,33.90
2018-06-03T01:29:23.727Z,33.90
2018-06-03T01:31:54.181Z,33.90
2018-06-03T01:34:24.299Z,33.90
2018-06-03T01:36:56.061Z,33.90
2018-06-03T01:39:25.652Z,33.90
2018-06-03T01:41:55.939Z,34.00
2018-06-03T01:44:25.553Z,33.90
2018-06-03T01:49:43.874Z,34.00
2018-06-03T01:52:14.356Z,34.00
2018-06-03T01:54:44.132Z,34.00
2018-06-03T01:57:13.929Z,34.10
2018-06-03T01:59:44.173Z,34.10
2018-06-03T02:02:28.603Z,34.10
2018-06-03T02:04:59.157Z,34.10
2018-06-03T02:07:29.046Z,34.10
2018-06-03T02:09:58.761Z,34.10
2018-06-03T02:12:28.374Z,34.10
2018-06-03T02:14:59.312Z,34.20
2018-06-03T02:17:29.856Z,34.20
2018-06-03T02:19:59.636Z,34.20
2018-06-03T02:22:46.007Z,34.20
2018-06-03T02:25:15.474Z,34.30
2018-06-03T02:27:45.792Z,34.40
2018-06-03T02:30:16.257Z,34.50
2018-06-03T02:32:45.835Z,34.50
2018-06-03T02:35:15.343Z,34.50
2018-06-03T02:37:46.113Z,34.60
2018-06-03T02:40:15.697Z,34.60
2018-06-03T02:42:49.283Z,34.60
2018-06-03T02:45:18.902Z,34.70
2018-06-03T02:47:49.409Z,34.70
2018-06-03T02:50:18.946Z,34.70
2018-06-03T02:52:50.064Z,34.80
2018-06-03T02:55:20.109Z,34.80
2018-06-03T02:57:50.310Z,34.90
2018-06-03T03:00:19.842Z,34.90
2018-06-03T03:02:50.158Z,34.90
2018-06-03T03:05:19.813Z,35.00
2018-06-03T03:07:50.003Z,35.00
2018-06-03T03:10:20.850Z,35.00
2018-06-03T03:12:50.374Z,35.00
2018-06-03T03:15:21.470Z,35.10
2018-06-03T03:17:52.333Z,35.10
2018-06-03T03:20:21.951Z,35.10
2018-06-03T03:22:51.559Z,35.20
2018-06-03T03:25:21.486Z,35.30
2018-06-03T03:27:51.195Z,35.40
2018-06-03T03:30:58.179Z,35.40
2018-06-03T03:33:34.147Z,35.50
2018-06-03T03:36:07.852Z,35.60
2018-06-03T03:38:41.958Z,35.70
2018-06-03T03:41:15.760Z,35.80
2018-06-03T03:43:53.234Z,35.90
2018-06-03T03:46:28.496Z,35.90
2018-06-03T03:49:05.304Z,35.90
2018-06-03T03:54:13.886Z,36.10
2018-06-03T03:56:47.728Z,36.20
2018-06-03T03:59:21.813Z,36.30
2018-06-03T04:01:59.331Z,36.30
2018-06-03T04:04:33.505Z,36.40
2018-06-03T04:07:08.036Z,36.50
2018-06-03T04:09:42.176Z,36.60
2018-06-03T04:12:18.671Z,36.70
2018-06-03T04:14:52.525Z,36.70
2018-06-03T04:17:27.839Z,36.80
2018-06-03T04:22:34.816Z,36.80
2018-06-03T04:25:08.816Z,36.80
2018-06-03T04:27:43.272Z,36.80
2018-06-03T04:32:50.671Z,36.90
2018-06-03T04:35:26.671Z,37.00
2018-06-03T04:38:02.116Z,36.90
2018-06-03T04:40:36.134Z,37.00
2018-06-03T04:43:10.341Z,37.00
2018-06-03T04:45:44.980Z,37.00
2018-06-03T04:48:18.980Z,37.00
2018-06-03T04:53:27.450Z,37.10
2018-06-03T04:56:33.610Z,37.10
2018-06-03T04:59:08.225Z,37.10
2018-06-03T05:01:42.131Z,37.10
2018-06-03T05:04:16.211Z,37.10
2018-06-03T05:06:50.710Z,37.10
2018-06-03T05:09:26.916Z,37.20
2018-06-03T05:12:02.493Z,37.20
2018-06-03T05:14:36.568Z,37.30
2018-06-03T05:17:10.691Z,37.30
2018-06-03T05:19:45.056Z,37.40
2018-06-03T05:22:18.974Z,37.40
2018-06-03T05:24:55.688Z,37.50
2018-06-03T05:27:29.776Z,37.60
2018-06-03T05:30:04.523Z,37.60
2018-06-03T05:32:38.693Z,37.70
2018-06-03T05:35:14.146Z,37.70
2018-06-03T05:37:48.161Z,37.80
2018-06-03T05:40:22.204Z,37.80
2018-06-03T05:42:56.736Z,37.80
2018-06-03T05:45:30.630Z,37.90
2018-06-03T05:48:05.544Z,37.90
2018-06-03T05:50:39.472Z,37.90
2018-06-03T05:53:13.530Z,37.90
2018-06-03T05:55:48.992Z,37.80
2018-06-03T05:58:25.267Z,37.90
2018-06-03T06:00:58.848Z,37.90
2018-06-03T06:03:36.155Z,37.90
2018-06-03T06:06:10.164Z,37.90
2018-06-03T06:11:16.959Z,38.00
2018-06-03T06:13:51.744Z,38.00
2018-06-03T06:16:25.655Z,38.00
2018-06-03T06:19:00.072Z,38.10
2018-06-03T06:24:08.736Z,38.10
2018-06-03T06:26:45.810Z,38.20
2018-06-03T06:29:21.520Z,38.20
2018-06-03T06:31:56.455Z,38.30
2018-06-03T06:34:31.020Z,38.40
2018-06-03T06:37:06.327Z,38.40
2018-06-03T06:39:40.478Z,38.50
2018-06-03T06:42:19.375Z,38.50
2018-06-03T06:44:54.033Z,38.60
2018-06-03T06:47:29.136Z,38.70
2018-06-03T06:50:02.723Z,38.80
2018-06-03T06:52:39.864Z,38.80
2018-06-03T06:55:16.199Z,38.80
2018-06-03T06:57:50.899Z,38.90
2018-06-03T07:00:29.542Z,38.90
2018-06-03T07:03:05.883Z,39.00
2018-06-03T07:05:41.072Z,39.00
2018-06-03T07:08:15.087Z,39.00
2018-06-03T07:10:48.996Z,39.00
2018-06-03T07:15:58.245Z,38.90
2018-06-03T07:23:41.042Z,38.90
2018-06-03T07:26:14.828Z,38.90
2018-06-03T07:28:49.207Z,38.90
2018-06-03T07:31:23.818Z,38.90
2018-06-03T07:33:58.994Z,38.90
2018-06-03T07:36:33.110Z,38.80
2018-06-03T07:39:08.210Z,38.80
2018-06-03T07:41:41.961Z,38.80
2018-06-03T07:44:17.012Z,38.80
2018-06-03T07:46:52.426Z,38.80
2018-06-03T07:51:59.068Z,38.90
2018-06-03T07:54:33.111Z,39.00
2018-06-03T07:57:08.063Z,39.00
2018-06-03T07:59:42.203Z,39.10
2018-06-03T08:02:16.785Z,39.20
2018-06-03T08:04:51.280Z,39.20
2018-06-03T08:07:25.125Z,39.30
2018-06-03T08:09:59.848Z,39.30
2018-06-03T08:12:34.153Z,39.20
2018-06-03T08:15:08.036Z,39.20
2018-06-03T08:17:42.066Z,39.00
2018-06-03T08:20:16.340Z,38.90
2018-06-03T08:22:50.154Z,38.70
2018-06-03T08:25:24.714Z,38.50
2018-06-03T08:27:58.565Z,38.40
2018-06-03T08:33:06.552Z,38.10
2018-06-03T08:35:40.684Z,37.90
2018-06-03T08:38:15.413Z,37.80
2018-06-03T08:43:24.788Z,37.60
2018-06-03T08:45:59.129Z,37.50
2018-06-03T08:48:33.491Z,37.40
2018-06-03T08:51:07.520Z,37.30
2018-06-03T08:56:16.179Z,37.10
2018-06-03T08:58:50.374Z,37.00
2018-06-03T09:04:02.280Z,36.90
2018-06-03T09:06:39.089Z,36.90
2018-06-03T09:09:17.772Z,36.80
2018-06-03T09:11:52.859Z,36.70
2018-06-03T09:14:26.762Z,36.60
2018-06-03T09:17:08.286Z,36.60
2018-06-03T09:19:42.337Z,36.50
2018-06-03T09:22:19.036Z,36.40
2018-06-03T09:24:53.152Z,36.40
2018-06-03T09:27:29.255Z,36.40
2018-06-03T09:30:03.164Z,36.40
2018-06-03T09:32:37.105Z,36.30
2018-06-03T09:35:11.152Z,36.30
2018-06-03T09:37:45.085Z,36.30
2018-06-03T09:40:19.189Z,36.30
2018-06-03T09:42:53.325Z,36.30
2018-06-03T09:45:27.732Z,36.20
2018-06-03T09:50:34.830Z,36.20
2018-06-03T09:53:08.493Z,36.10
2018-06-03T09:55:42.830Z,36.10
2018-06-03T09:58:17.426Z,36.10
2018-06-03T10:00:51.916Z,36.10
2018-06-03T10:03:25.792Z,36.10
2018-06-03T10:06:00.989Z,36.10
2018-06-03T10:08:34.461Z,36.00
2018-06-03T10:11:09.227Z,36.00
2018-06-03T10:13:43.236Z,36.00
2018-06-03T10:16:17.492Z,36.00
2018-06-03T10:18:52.020Z,35.90
2018-06-03T10:21:27.247Z,35.90
2018-06-03T10:24:01.341Z,35.90
2018-06-03T10:26:35.410Z,35.80
2018-06-03T10:29:09.333Z,35.80
2018-06-03T10:31:43.540Z,35.80
2018-06-03T10:34:17.559Z,35.70
2018-06-03T10:36:51.617Z,35.70
2018-06-03T10:39:25.842Z,35.60
2018-06-03T10:41:59.995Z,35.60
2018-06-03T10:44:34.112Z,35.50
2018-06-03T10:47:08.460Z,35.50
2018-06-03T10:49:42.572Z,35.50
2018-06-03T10:52:16.636Z,35.40
2018-06-03T10:54:50.926Z,35.40
2018-06-03T10:57:25.176Z,35.40
2018-06-03T11:02:31.654Z,35.30
2018-06-03T11:05:05.729Z,35.30
2018-06-03T11:07:40.765Z,35.30
2018-06-03T11:10:14.669Z,35.20
2018-06-03T11:12:48.937Z,35.20
2018-06-03T11:15:22.743Z,35.20
2018-06-03T11:20:28.862Z,35.20
2018-06-03T11:23:02.730Z,35.20
2018-06-03T11:25:36.750Z,35.10
2018-06-03T12:16:56.910Z,35.10
2018-06-03T12:19:31.821Z,35.10
2018-06-03T12:22:05.557Z,33.50
2018-06-03T12:24:40.190Z,33.50
2018-06-03T12:27:14.137Z,33.50
2018-06-03T12:29:49.096Z,33.70
2018-06-03T12:32:23.362Z,33.70
2018-06-03T12:34:57.335Z,33.80
2018-06-03T12:37:31.265Z,33.90
2018-06-03T12:40:05.362Z,34.00
2018-06-03T12:42:39.579Z,34.00
2018-06-03T12:45:13.859Z,34.10
2018-06-03T12:47:47.946Z,34.10
2018-06-03T12:50:21.900Z,34.20
2018-06-03T12:52:55.858Z,34.20
2018-06-03T12:55:30.322Z,34.20
2018-06-03T13:00:36.983Z,34.30
2018-06-03T13:03:11.226Z,34.30
2018-06-03T13:05:46.280Z,34.30
2018-06-03T13:10:53.836Z,34.30
2018-06-03T13:13:27.413Z,34.30
2018-06-03T13:16:01.855Z,34.30
2018-06-03T13:18:36.298Z,34.30
2018-06-03T13:21:11.387Z,34.30
2018-06-03T13:23:45.184Z,34.30
2018-06-03T13:26:19.665Z,34.40
2018-06-03T13:28:53.743Z,34.30
2018-06-03T13:31:27.566Z,34.30
2018-06-03T13:34:01.868Z,34.40
2018-06-03T13:36:35.742Z,34.40
2018-06-03T13:41:46.858Z,34.30
2018-06-03T13:44:22.254Z,34.40
2018-06-03T13:49:32.018Z,34.30
2018-06-03T13:52:05.945Z,34.30
2018-06-03T13:54:40.014Z,34.30
2018-06-03T13:57:13.689Z,34.30
2018-06-03T13:59:47.794Z,34.30
2018-06-03T14:02:21.189Z,34.30
2018-06-03T14:07:28.184Z,34.30
2018-06-03T14:10:02.147Z,34.30
2018-06-03T14:12:36.205Z,34.30
2018-06-03T14:15:10.334Z,34.20
2018-06-03T14:17:44.627Z,34.20
2018-06-03T14:20:18.751Z,34.20
2018-06-03T14:22:53.886Z,34.10
2018-06-03T14:28:01.393Z,34.10
2018-06-03T14:30:36.529Z,34.00
2018-06-03T14:35:43.286Z,33.90
2018-06-03T14:38:17.359Z,33.90
2018-06-03T14:40:51.224Z,33.90
2018-06-03T14:45:57.874Z,33.80
2018-06-03T14:48:31.906Z,33.70
2018-06-03T14:51:06.046Z,33.70
2018-06-03T14:53:39.778Z,33.70
2018-06-03T14:56:13.724Z,33.70
2018-06-03T14:58:47.630Z,33.60
2018-06-03T15:03:55.481Z,33.60
2018-06-03T15:06:29.074Z,33.50
2018-06-03T15:09:02.750Z,33.50
2018-06-03T15:11:37.288Z,33.40
2018-06-03T15:14:11.377Z,33.40
2018-06-03T15:16:46.726Z,33.30
2018-06-03T15:21:53.300Z,33.20
2018-06-03T15:24:28.523Z,33.20
2018-06-03T15:27:03.129Z,33.10
2018-06-03T15:29:36.842Z,33.10
2018-06-03T15:32:10.928Z,33.10
2018-06-03T15:34:45.446Z,33.10
2018-06-03T15:37:19.848Z,33.00
2018-06-03T15:39:53.979Z,33.00
2018-06-03T15:42:29.620Z,33.00
2018-06-03T15:45:03.667Z,33.00
2018-06-03T15:47:37.953Z,33.00
2018-06-03T15:50:11.977Z,33.00
2018-06-03T15:52:45.921Z,33.00
2018-06-03T15:55:20.145Z,33.00
2018-06-03T15:57:54.425Z,33.00
2018-06-03T16:00:28.526Z,33.00
2018-06-03T16:03:02.527Z,33.00
2018-06-03T16:05:37.095Z,32.90
2018-06-03T16:08:10.947Z,32.90
2018-06-03T16:10:45.320Z,32.90
2018-06-03T16:13:19.210Z,32.90
2018-06-03T16:15:53.251Z,32.90
2018-06-03T16:18:27.635Z,32.80
2018-06-03T16:21:02.090Z,32.80
2018-06-03T16:23:36.065Z,32.80
2018-06-03T16:26:11.305Z,32.80
2018-06-03T16:28:45.811Z,32.80
2018-06-03T16:31:19.939Z,32.80
2018-06-03T16:33:54.412Z,32.80
2018-06-03T16:36:28.547Z,32.70
2018-06-03T16:39:02.593Z,32.70
2018-06-03T16:41:36.810Z,32.80
2018-06-03T16:44:11.608Z,32.70
2018-06-03T16:46:45.646Z,32.70
2018-06-03T16:49:19.904Z,32.70
2018-06-03T16:51:54.027Z,32.70
2018-06-03T16:54:27.901Z,32.70
2018-06-03T16:57:01.852Z,32.70
2018-06-03T16:59:35.555Z,32.70
2018-06-03T17:02:09.784Z,32.70
2018-06-03T17:04:44.125Z,32.70
2018-06-03T17:07:18.338Z,32.70
2018-06-03T17:09:52.438Z,32.70
2018-06-03T17:12:26.726Z,32.80
2018-06-03T17:15:00.220Z,32.70
2018-06-03T17:20:06.836Z,32.70
2018-06-03T17:22:40.158Z,32.70
2018-06-03T17:25:14.957Z,32.70
2018-06-03T18:06:51.500Z,32.70
2018-06-03T18:09:25.470Z,32.70
2018-06-03T18:11:59.855Z,31.40
2018-06-03T18:14:33.802Z,31.40
2018-06-03T18:17:07.615Z,31.50
2018-06-03T18:22:14.397Z,31.70
2018-06-03T18:27:21.343Z,31.90
2018-06-03T18:29:56.131Z,31.90
2018-06-03T18:32:30.361Z,32.00
2018-06-03T18:35:04.244Z,32.00
2018-06-03T18:37:38.490Z,32.10
2018-06-03T18:40:12.679Z,32.20
2018-06-03T18:42:46.544Z,32.20
2018-06-03T18:45:20.788Z,32.20
2018-06-03T18:47:55.994Z,32.20
2018-06-03T18:50:30.017Z,32.30
2018-06-03T18:53:04.000Z,32.30
2018-06-03T18:55:37.975Z,32.40
2018-06-03T18:58:11.547Z,32.40
2018-06-03T19:00:45.747Z,32.40
2018-06-03T19:03:19.631Z,32.40
2018-06-03T19:05:53.306Z,32.40
2018-06-03T19:11:00.284Z,32.40
2018-06-03T19:16:07.054Z,32.40
2018-06-03T19:18:40.691Z,32.40
2018-06-03T19:21:14.727Z,32.50
2018-06-03T19:23:48.751Z,32.50
2018-06-03T19:26:22.352Z,32.50
2018-06-03T19:28:56.881Z,32.50
2018-06-03T19:31:31.278Z,32.50
2018-06-03T19:34:05.683Z,32.50
2018-06-03T19:36:42.412Z,32.50
2018-06-03T19:39:16.413Z,32.50
2018-06-03T19:41:50.706Z,32.50
2018-06-03T19:44:25.024Z,32.50
2018-06-03T19:46:59.186Z,32.50
2018-06-03T19:49:33.284Z,32.40
2018-06-03T19:52:07.337Z,32.50
2018-06-03T19:54:41.555Z,32.50
2018-06-03T19:57:15.758Z,32.50
2018-06-03T19:59:49.598Z,32.50
2018-06-03T20:02:23.822Z,32.50
2018-06-03T20:04:58.007Z,32.50
2018-06-03T20:07:32.518Z,32.50
2018-06-03T20:12:38.987Z,32.50
2018-06-03T20:15:13.469Z,32.50
2018-06-03T20:17:47.438Z,32.50
2018-06-03T20:22:55.010Z,32.50
2018-06-03T20:25:29.089Z,32.50
2018-06-03T20:28:03.500Z,32.50
2018-06-03T20:33:11.213Z,32.50
2018-06-03T20:35:45.304Z,32.50
2018-06-03T20:38:19.664Z,32.40
2018-06-03T20:40:53.859Z,32.50
2018-06-03T20:43:28.286Z,32.50
2018-06-03T20:46:02.156Z,32.50
2018-06-03T20:48:36.076Z,32.40
2018-06-03T20:51:10.160Z,32.40
2018-06-03T20:53:44.250Z,32.40
2018-06-03T20:56:18.143Z,32.40
2018-06-03T20:58:51.850Z,32.40
2018-06-03T21:01:26.036Z,32.40
2018-06-03T21:04:00.161Z,32.40
2018-06-03T21:06:34.180Z,32.40
2018-06-03T21:09:10.477Z,32.40
2018-06-03T21:11:44.424Z,32.30
2018-06-03T21:14:19.037Z,32.30
2018-06-03T21:16:53.176Z,32.20
2018-06-03T21:19:27.521Z,32.20
2018-06-03T21:22:01.487Z,32.20
2018-06-03T21:24:35.159Z,32.20
2018-06-03T21:27:09.182Z,32.10
2018-06-03T21:29:43.137Z,32.20
2018-06-03T21:32:17.303Z,32.10
2018-06-03T21:34:51.915Z,32.10
2018-06-03T21:37:25.842Z,32.10
2018-06-03T21:39:59.903Z,32.10
2018-06-03T21:42:33.446Z,32.10
2018-06-03T21:45:07.633Z,32.00
2018-06-03T21:47:42.133Z,32.00
2018-06-03T21:50:16.427Z,31.90
2018-06-03T21:52:50.230Z,32.00
2018-06-03T21:55:25.373Z,31.90
2018-06-03T21:57:59.364Z,31.90
2018-06-03T22:00:33.927Z,31.90
2018-06-03T22:05:42.367Z,31.90
2018-06-03T22:08:17.204Z,31.90
2018-06-03T22:13:23.387Z,31.90
2018-06-03T22:15:58.570Z,31.90
2018-06-03T22:18:32.618Z,31.90
2018-06-03T22:21:06.307Z,31.90
2018-06-03T22:23:40.212Z,31.90
2018-06-03T22:26:15.289Z,31.90
2018-06-03T22:31:23.170Z,31.90
2018-06-03T22:33:57.360Z,31.90
2018-06-03T22:36:32.529Z,31.90
2018-06-03T22:39:07.031Z,31.90
2018-06-03T22:41:41.544Z,31.90
2018-06-03T22:44:15.490Z,31.90
2018-06-03T22:46:49.238Z,31.90
2018-06-03T22:49:32.366Z,31.90
2018-06-03T22:52:07.063Z,31.90
2018-06-03T22:57:50.555Z,31.80
2018-06-03T23:00:34.274Z,31.80
2018-06-03T23:03:12.061Z,31.80
2018-06-03T23:05:46.402Z,31.80
2018-06-03T23:08:21.199Z,31.70
2018-06-03T23:10:56.250Z,31.80
2018-06-03T23:13:30.411Z,31.80
2018-06-03T23:16:04.374Z,31.70
2018-06-03T23:18:38.473Z,31.80
2018-06-03T23:21:12.275Z,31.80
2018-06-03T23:26:18.736Z,31.70
2018-06-03T23:28:52.924Z,31.70
2018-06-03T23:31:27.098Z,31.70
2018-06-03T23:34:01.714Z,31.60
2018-06-03T23:36:35.736Z,31.60
2018-06-03T23:41:44.722Z,31.60
2018-06-03T23:44:18.436Z,31.60
2018-06-03T23:46:52.268Z,31.60
2018-06-03T23:51:59.513Z,31.60
2018-06-03T23:54:33.864Z,31.70
2018-06-03T23:57:10.473Z,31.70
2018-06-03T23:59:44.385Z,31.70
